Aviation Digital Data Service (ADDS)

Output produced by METARs form (1621 UTC 26 September 2017)
found at http://bcaws.aviationweather.gov/adds/metars/
 
METAR text: KRHV 261547Z 00000KT 10SM SKC 19/06 A2988
Conditions at: KRHV (SAN JOSE/REID , CA, US) observed 1547 UTC 26 September 2017
Temperature: 19.0°C (66°F)
Dewpoint: 6.0°C (43°F) [RH = 43%]
Pressure (altimeter): 29.88 inches Hg (1011.9 mb)
Winds: calm
Visibility: 10 or more miles (16+ km)
Ceiling: at least 12,000 feet AGL
Clouds: clear skies
Weather: no significant weather observed at this time